Time;durP1;ratioP1;P1;durP2;ratioP2;P2;SDS_P1;SDS_P2;PMS_P1;PMS_P2;Temp;Humidity;BMP_temperature;BMP_pressure;BME280_temperature;BME280_humidity;BME280_pressure;Samples;Min_cycle;Max_cycle;Signal;HPM_P1;HPM_P2
2022/05/05 00:01:24;;;;;;;16.75;7.38;;;9.50;99.90;;;;;;5055688;28;20029;-62
2022/05/05 00:03:49;;;;;;;18.10;7.75;;;9.50;99.90;;;;;;5054524;28;20029;-62
2022/05/05 00:06:15;;;;;;;20.15;7.05;;;9.50;99.90;;;;;;5055834;28;20033;-61
2022/05/05 00:08:40;;;;;;;18.45;8.13;;;9.50;99.90;;;;;;5056031;28;20032;-63
2022/05/05 00:16:34;;;;;;;17.95;7.30;;;9.60;99.90;;;;;;5055386;28;20032;-61
2022/05/05 00:19:01;;;;;;;21.40;8.02;;;9.70;99.90;;;;;;5056056;28;20028;-62
2022/05/05 00:21:26;;;;;;;17.23;7.18;;;9.70;99.90;;;;;;5055382;28;20107;-62
2022/05/05 00:23:52;;;;;;;20.55;8.80;;;9.80;99.90;;;;;;5055219;28;20113;-61
2022/05/05 00:26:18;;;;;;;18.98;7.95;;;9.80;99.90;;;;;;5055363;28;20028;-62
2022/05/05 00:28:43;;;;;;;19.50;8.15;;;9.90;99.90;;;;;;5055130;28;20044;-62
2022/05/05 00:31:09;;;;;;;21.05;9.10;;;10.00;99.90;;;;;;5055260;28;20025;-62
2022/05/05 00:33:34;;;;;;;18.85;7.05;;;10.10;99.90;;;;;;5055404;28;20029;-62
2022/05/05 00:36:00;;;;;;;19.35;8.10;;;10.20;99.90;;;;;;5054946;28;20809;-62
2022/05/05 00:38:25;;;;;;;16.08;6.93;;;10.30;99.90;;;;;;5055182;28;20457;-61
2022/05/05 00:40:51;;;;;;;18.90;7.32;;;10.30;99.90;;;;;;5055090;28;20025;-62
2022/05/05 00:43:17;;;;;;;20.65;7.95;;;10.50;99.90;;;;;;5054811;28;20029;-62
2022/05/05 00:45:42;;;;;;;17.67;7.55;;;10.50;99.90;;;;;;5055382;28;20147;-64
2022/05/05 00:48:09;;;;;;;22.58;8.45;;;10.60;99.90;;;;;;5054786;28;20082;-62
2022/05/05 00:50:36;;;;;;;17.08;7.82;;;10.70;99.90;;;;;;5054590;28;20021;-63
2022/05/05 00:53:03;;;;;;;19.58;7.45;;;10.70;99.90;;;;;;5054793;28;20124;-62
2022/05/05 00:55:38;;;;;;;20.27;7.90;;;10.80;99.90;;;;;;5055216;28;20021;-62
2022/05/05 00:58:04;;;;;;;19.73;8.00;;;10.80;99.90;;;;;;5054658;28;20028;-62
2022/05/05 01:00:32;;;;;;;18.08;8.18;;;10.90;99.90;;;;;;5054778;28;20017;-62
2022/05/05 01:03:00;;;;;;;24.02;8.05;;;10.90;99.90;;;;;;5054738;28;20020;-62
2022/05/05 01:05:30;;;;;;;20.73;8.05;;;10.90;99.90;;;;;;5054235;28;20758;-62
2022/05/05 01:07:56;;;;;;;18.67;7.97;;;10.90;99.90;;;;;;5054509;28;20125;-62
2022/05/05 01:10:24;;;;;;;19.50;8.80;;;10.80;99.90;;;;;;5054450;28;20092;-63
2022/05/05 01:12:50;;;;;;;17.63;7.60;;;10.90;99.90;;;;;;5054323;28;20033;-61
2022/05/05 01:15:16;;;;;;;22.70;9.45;;;10.90;99.90;;;;;;5054286;28;20031;-62
2022/05/05 01:17:42;;;;;;;23.45;8.98;;;10.90;99.90;;;;;;5054312;28;20103;-61
2022/05/05 01:20:15;;;;;;;18.80;7.85;;;10.90;99.90;;;;;;5052723;28;20032;-62
2022/05/05 01:22:41;;;;;;;20.42;7.93;;;10.90;99.90;;;;;;5054318;28;20013;-62
2022/05/05 01:30:35;;;;;;;15.95;7.55;;;11.00;99.90;;;;;;5054325;28;20124;-63
2022/05/05 01:33:08;;;;;;;17.50;7.50;;;11.10;99.90;;;;;;5054163;28;20123;-62
2022/05/05 01:35:34;;;;;;;22.88;8.32;;;11.00;99.90;;;;;;5054366;28;20555;-62
2022/05/05 01:37:59;;;;;;;19.92;8.50;;;11.10;99.90;;;;;;5054155;28;20056;-61
2022/05/05 01:40:25;;;;;;;29.42;16.45;;;11.10;99.90;;;;;;5053813;28;20017;-62
2022/05/05 01:42:51;;;;;;;24.73;13.88;;;11.10;99.90;;;;;;5052221;28;20060;-62
2022/05/05 01:45:16;;;;;;;22.08;10.30;;;11.20;99.90;;;;;;5053903;28;20028;-63
2022/05/05 01:47:42;;;;;;;20.45;9.48;;;11.20;99.90;;;;;;5053808;28;20385;-61
2022/05/05 01:50:08;;;;;;;20.60;9.50;;;11.20;99.90;;;;;;5053873;28;20029;-62
2022/05/05 01:52:34;;;;;;;22.45;9.45;;;11.20;99.90;;;;;;5052172;28;20040;-61
2022/05/05 01:55:00;;;;;;;20.05;8.82;;;11.20;99.90;;;;;;5053087;28;20025;-62
2022/05/05 01:57:25;;;;;;;18.35;8.23;;;11.30;99.90;;;;;;5053547;28;20107;-62
2022/05/05 01:59:51;;;;;;;18.48;6.97;;;11.30;99.90;;;;;;5053656;28;20025;-62
2022/05/05 02:02:17;;;;;;;18.55;6.80;;;11.30;99.90;;;;;;5053649;28;20413;-62
2022/05/05 02:04:42;;;;;;;13.55;6.30;;;11.30;99.90;;;;;;5053348;28;20060;-63
2022/05/05 02:07:08;;;;;;;16.58;6.68;;;11.40;99.90;;;;;;5053385;28;20025;-62
2022/05/05 02:09:33;;;;;;;18.23;6.78;;;11.40;99.90;;;;;;5053312;28;20033;-62
2022/05/05 02:11:59;;;;;;;13.50;6.35;;;11.40;99.90;;;;;;5052918;28;20071;-61
2022/05/05 02:14:25;;;;;;;15.50;6.50;;;11.50;99.90;;;;;;5053156;28;20361;-62
2022/05/05 02:16:50;;;;;;;16.92;6.53;;;11.50;99.90;;;;;;5053407;28;20159;-62
2022/05/05 02:19:16;;;;;;;15.77;6.32;;;11.50;99.90;;;;;;5053252;28;20032;-62
2022/05/05 02:21:42;;;;;;;16.23;6.35;;;11.60;99.90;;;;;;5053060;28;20037;-62
2022/05/05 02:24:07;;;;;;;18.23;7.03;;;11.60;99.90;;;;;;5053541;28;20060;-62
2022/05/05 02:26:33;;;;;;;16.65;7.18;;;11.70;99.90;;;;;;5052966;28;20057;-62
2022/05/05 02:28:58;;;;;;;15.60;6.65;;;11.70;99.90;;;;;;5052867;28;20119;-62
2022/05/05 02:31:24;;;;;;;16.70;7.03;;;11.70;99.90;;;;;;5053142;28;20037;-63
2022/05/05 02:33:50;;;;;;;16.70;6.82;;;11.70;99.90;;;;;;5053050;28;20468;-61
2022/05/05 02:39:00;;;;;;;17.70;7.63;;;11.70;99.90;;;;;;5052457;28;20526;-62
2022/05/05 02:41:25;;;;;;;19.83;7.63;;;11.70;99.90;;;;;;5053205;28;20056;-62
2022/05/05 02:43:51;;;;;;;19.95;8.32;;;11.70;99.90;;;;;;5052694;28;20385;-62
2022/05/05 02:46:16;;;;;;;16.05;7.30;;;11.70;99.90;;;;;;5052683;28;20453;-62
2022/05/05 02:48:42;;;;;;;19.83;7.93;;;11.70;99.90;;;;;;5052835;28;20082;-62
2022/05/05 02:51:08;;;;;;;19.05;7.38;;;11.70;99.90;;;;;;5052446;28;20043;-62
2022/05/05 02:56:17;;;;;;;17.35;8.23;;;11.70;99.90;;;;;;5052390;28;20511;-61
2022/05/05 02:58:43;;;;;;;19.92;7.55;;;11.70;99.90;;;;;;5052395;28;20453;-62
2022/05/05 03:01:08;;;;;;;22.45;8.38;;;11.70;99.90;;;;;;5052923;28;20056;-63
2022/05/05 03:03:35;;;;;;;21.92;8.43;;;11.80;99.90;;;;;;5052698;28;20104;-61
2022/05/05 03:06:01;;;;;;;19.55;8.32;;;11.80;99.90;;;;;;5052120;28;20031;-62
2022/05/05 03:08:26;;;;;;;19.98;7.35;;;11.80;99.90;;;;;;5052758;28;20017;-63
2022/05/05 03:10:52;;;;;;;20.92;8.45;;;11.80;99.90;;;;;;5052500;28;20025;-62
2022/05/05 03:13:17;;;;;;;18.42;8.40;;;11.90;99.90;;;;;;5051096;28;20076;-61
2022/05/05 03:15:44;;;;;;;21.63;9.10;;;11.90;99.90;;;;;;5052209;28;20028;-62
2022/05/05 03:18:10;;;;;;;19.35;8.10;;;11.90;99.90;;;;;;5052263;28;20017;-63
2022/05/05 03:20:35;;;;;;;18.77;7.90;;;11.90;99.90;;;;;;5051954;28;20032;-63
2022/05/05 03:23:01;;;;;;;19.58;7.75;;;11.90;99.90;;;;;;5052113;28;20056;-62
2022/05/05 03:25:27;;;;;;;22.23;8.57;;;11.90;99.90;;;;;;5050796;28;20247;-62
2022/05/05 03:27:52;;;;;;;19.05;8.35;;;11.90;99.90;;;;;;5052085;28;20028;-62
2022/05/05 03:30:18;;;;;;;24.05;9.45;;;11.90;99.90;;;;;;5052274;28;20074;-62
2022/05/05 03:32:43;;;;;;;21.55;7.63;;;12.00;99.90;;;;;;5052298;28;20036;-63
2022/05/05 03:35:09;;;;;;;21.55;8.13;;;11.90;99.90;;;;;;5052194;28;20075;-62
2022/05/05 03:37:35;;;;;;;20.27;8.27;;;11.90;99.90;;;;;;5052259;28;20025;-62
2022/05/05 03:40:01;;;;;;;19.33;8.13;;;12.00;99.90;;;;;;5050997;28;20123;-62
2022/05/05 03:42:27;;;;;;;20.38;7.32;;;12.00;99.90;;;;;;5052100;28;20020;-63
2022/05/05 03:44:52;;;;;;;22.38;9.48;;;12.00;99.90;;;;;;5051954;28;20025;-62
2022/05/05 03:47:19;;;;;;;21.83;8.90;;;11.90;99.90;;;;;;5052048;28;20021;-61
2022/05/05 03:49:44;;;;;;;22.20;7.90;;;11.90;99.90;;;;;;5051882;28;20017;-62
2022/05/05 03:52:10;;;;;;;17.02;7.15;;;11.90;99.90;;;;;;5051777;28;20087;-61
2022/05/05 03:54:36;;;;;;;22.02;8.02;;;11.90;99.90;;;;;;5052216;28;20029;-62
2022/05/05 03:57:01;;;;;;;18.80;8.10;;;11.90;99.90;;;;;;5051905;28;20480;-61
2022/05/05 03:59:27;;;;;;;19.55;7.82;;;11.90;99.90;;;;;;5051861;28;20063;-62
2022/05/05 04:01:53;;;;;;;21.80;8.13;;;11.90;99.90;;;;;;5051828;28;20029;-63
2022/05/05 04:04:19;;;;;;;15.77;6.50;;;11.90;99.90;;;;;;5051923;28;20040;-61
2022/05/05 04:06:45;;;;;;;18.98;6.80;;;11.80;99.90;;;;;;5052173;28;20040;-62
2022/05/05 04:09:11;;;;;;;21.88;8.18;;;11.80;99.90;;;;;;5050702;28;20449;-62
2022/05/05 04:11:37;;;;;;;20.52;9.02;;;11.80;99.90;;;;;;5051536;28;20028;-62
2022/05/05 04:14:03;;;;;;;20.40;7.72;;;11.80;99.90;;;;;;5051623;28;20082;-62
2022/05/05 04:16:31;;;;;;;22.00;8.27;;;11.70;99.90;;;;;;5051948;28;20024;-63
2022/05/05 04:18:58;;;;;;;21.52;8.38;;;11.80;99.90;;;;;;5053823;28;20197;-62
2022/05/05 04:21:24;;;;;;;17.70;8.07;;;11.80;99.90;;;;;;5055832;28;20457;-62
2022/05/05 04:23:50;;;;;;;23.48;8.73;;;11.80;99.90;;;;;;5055817;28;20034;-63
2022/05/05 04:26:17;;;;;;;23.90;8.80;;;11.80;99.90;;;;;;5055337;28;20021;-62
2022/05/05 04:28:43;;;;;;;22.27;9.10;;;11.80;99.90;;;;;;5055117;28;20048;-62
2022/05/05 04:31:12;;;;;;;26.35;10.50;;;11.80;99.90;;;;;;5053525;28;20021;-62
2022/05/05 04:33:38;;;;;;;22.10;8.50;;;11.90;99.90;;;;;;5053541;28;20028;-62
2022/05/05 04:36:04;;;;;;;23.33;8.45;;;11.90;99.90;;;;;;5055176;28;20484;-62
2022/05/05 04:38:30;;;;;;;19.75;9.00;;;11.90;99.90;;;;;;5054911;28;20021;-62
2022/05/05 04:40:56;;;;;;;23.10;10.35;;;11.90;99.90;;;;;;5054287;28;20036;-62
2022/05/05 04:43:22;;;;;;;26.70;11.18;;;12.00;99.90;;;;;;5054834;28;20040;-62
2022/05/05 04:45:47;;;;;;;26.83;10.40;;;12.00;99.90;;;;;;5054822;28;20024;-62
2022/05/05 04:48:13;;;;;;;25.35;10.45;;;11.90;99.90;;;;;;5054572;28;20021;-62
2022/05/05 04:50:38;;;;;;;24.95;10.60;;;12.00;99.90;;;;;;5055270;28;20464;-61
2022/05/05 04:53:05;;;;;;;25.73;11.60;;;12.00;99.90;;;;;;5054834;28;20121;-62
2022/05/05 04:55:30;;;;;;;25.15;10.57;;;12.10;99.90;;;;;;5054882;28;20017;-62
2022/05/05 04:57:56;;;;;;;25.30;11.32;;;12.10;99.90;;;;;;5054423;28;20096;-61
2022/05/05 05:00:22;;;;;;;22.02;10.13;;;12.10;99.90;;;;;;5054400;28;20024;-62
2022/05/05 05:02:49;;;;;;;24.63;10.55;;;12.10;99.90;;;;;;5054523;28;20017;-62
2022/05/05 05:05:14;;;;;;;23.70;10.40;;;12.10;99.90;;;;;;5054728;28;20044;-62
2022/05/05 05:07:40;;;;;;;27.40;10.73;;;12.20;99.90;;;;;;5054769;28;20049;-62
2022/05/05 05:10:06;;;;;;;25.02;10.35;;;12.20;99.90;;;;;;5054525;28;20527;-62
2022/05/05 05:12:32;;;;;;;23.20;10.65;;;12.30;99.90;;;;;;5054272;28;20162;-62
2022/05/05 05:14:57;;;;;;;24.73;10.68;;;12.30;99.90;;;;;;5054753;28;20108;-62
2022/05/05 05:17:23;;;;;;;28.63;12.43;;;12.40;99.90;;;;;;5053295;28;20063;-62
2022/05/05 05:19:48;;;;;;;37.45;16.30;;;12.40;99.90;;;;;;5054648;28;20453;-62
2022/05/05 05:22:14;;;;;;;26.95;12.70;;;12.40;99.90;;;;;;5053341;28;20062;-63
2022/05/05 05:24:39;;;;;;;24.33;11.02;;;12.50;99.90;;;;;;5054811;28;20027;-62
2022/05/05 05:27:05;;;;;;;28.38;12.98;;;12.50;99.90;;;;;;5054412;28;20025;-62
2022/05/05 05:29:31;;;;;;;26.80;12.88;;;12.60;99.90;;;;;;5053330;28;20484;-62
2022/05/05 05:31:56;;;;;;;35.83;13.10;;;12.70;99.90;;;;;;5053802;28;20068;-62
2022/05/05 05:34:22;;;;;;;24.05;10.55;;;12.70;99.90;;;;;;5053447;28;20039;-62
2022/05/05 05:36:51;;;;;;;21.67;10.40;;;12.80;99.90;;;;;;5053939;28;20082;-62
2022/05/05 05:39:18;;;;;;;23.23;10.45;;;12.90;99.90;;;;;;5054071;28;20024;-62
2022/05/05 05:41:44;;;;;;;26.25;9.88;;;13.00;99.90;;;;;;5052758;28;20017;-62
2022/05/05 05:44:10;;;;;;;24.13;9.70;;;13.10;99.90;;;;;;5053999;28;20601;-62
2022/05/05 05:46:35;;;;;;;25.73;10.80;;;13.20;99.90;;;;;;5053594;28;20029;-62
2022/05/05 05:49:01;;;;;;;22.58;9.65;;;13.20;99.90;;;;;;5054039;28;20021;-61
2022/05/05 05:51:26;;;;;;;23.17;9.55;;;13.30;99.90;;;;;;5052544;28;20013;-61
2022/05/05 05:53:52;;;;;;;23.88;10.52;;;13.30;99.90;;;;;;5053794;28;20517;-62
2022/05/05 05:56:18;;;;;;;21.75;8.63;;;13.40;99.90;;;;;;5053945;28;20111;-63
2022/05/05 05:58:44;;;;;;;26.77;10.45;;;13.50;99.90;;;;;;5052189;28;20052;-62
2022/05/05 06:01:09;;;;;;;26.75;10.90;;;13.50;99.90;;;;;;5050994;28;20051;-62
2022/05/05 06:03:54;;;;;;;24.23;10.27;;;13.60;99.90;;;;;;5051967;28;20445;-62
2022/05/05 06:06:20;;;;;;;23.17;10.98;;;13.70;99.90;;;;;;5053744;28;20025;-61
2022/05/05 06:08:46;;;;;;;27.73;9.35;;;13.80;99.90;;;;;;5053754;28;20044;-62
2022/05/05 06:11:13;;;;;;;26.63;12.43;;;14.00;99.90;;;;;;5053250;28;20338;-62
2022/05/05 06:13:39;;;;;;;23.75;10.43;;;14.10;99.90;;;;;;5053247;28;20024;-62
2022/05/05 06:16:06;;;;;;;28.38;11.57;;;14.20;99.90;;;;;;5053433;28;20032;-62
2022/05/05 06:18:32;;;;;;;24.42;10.60;;;14.30;99.90;;;;;;5053419;28;20025;-62
2022/05/05 06:20:58;;;;;;;25.60;11.75;;;14.50;99.90;;;;;;5053419;28;20021;-62
2022/05/05 06:23:25;;;;;;;23.42;10.43;;;14.60;99.90;;;;;;5052959;28;20017;-62
2022/05/05 06:25:50;;;;;;;22.50;9.90;;;14.70;99.90;;;;;;5053210;28;20035;-62
2022/05/05 06:28:16;;;;;;;26.80;10.13;;;14.90;99.90;;;;;;5052637;28;20124;-63
2022/05/05 06:30:41;;;;;;;25.10;10.15;;;15.00;99.90;;;;;;5052799;28;20021;-63
2022/05/05 06:33:07;;;;;;;23.98;9.75;;;15.20;99.90;;;;;;5052774;28;20044;-62
2022/05/05 06:35:32;;;;;;;21.65;9.52;;;15.30;99.90;;;;;;5050746;28;20036;-63
2022/05/05 06:37:58;;;;;;;23.65;10.80;;;15.40;99.90;;;;;;5052455;28;20049;-62
2022/05/05 06:40:24;;;;;;;22.98;10.20;;;15.60;99.90;;;;;;5052753;28;20029;-62
2022/05/05 06:42:50;;;;;;;24.55;9.80;;;15.60;99.90;;;;;;5051661;28;20021;-61
2022/05/05 06:45:16;;;;;;;21.77;10.20;;;15.70;99.90;;;;;;5052635;28;20047;-61
2022/05/05 06:47:42;;;;;;;21.45;9.70;;;15.90;99.90;;;;;;5052744;28;20028;-63
2022/05/05 06:50:08;;;;;;;23.58;9.73;;;16.00;99.90;;;;;;5052812;28;20027;-61
2022/05/05 06:52:33;;;;;;;23.10;10.10;;;16.20;99.90;;;;;;5052772;28;20037;-62
2022/05/05 06:55:00;;;;;;;26.45;10.85;;;16.30;99.90;;;;;;5052660;28;20045;-62
2022/05/05 06:57:26;;;;;;;23.05;10.25;;;16.40;99.90;;;;;;5052266;28;20052;-62
2022/05/05 06:59:52;;;;;;;26.67;12.05;;;16.50;99.90;;;;;;5051420;28;20063;-62
2022/05/05 07:02:18;;;;;;;22.60;10.85;;;16.60;99.90;;;;;;5052399;28;20489;-62
2022/05/05 07:07:29;;;;;;;27.00;12.23;;;16.60;99.90;;;;;;5052307;28;20039;-62
2022/05/05 07:12:38;;;;;;;22.23;11.93;;;16.70;99.90;;;;;;5052224;28;20139;-62
2022/05/05 07:15:04;;;;;;;28.75;12.93;;;16.80;99.90;;;;;;5052683;28;20039;-62
2022/05/05 07:17:30;;;;;;;29.95;12.43;;;17.00;99.90;;;;;;5052634;28;20104;-61
2022/05/05 07:19:56;;;;;;;28.65;12.73;;;17.00;99.90;;;;;;5052630;28;20025;-62
2022/05/05 07:22:22;;;;;;;25.17;13.00;;;17.20;99.90;;;;;;5048526;28;20028;-61
2022/05/05 07:24:47;;;;;;;23.92;11.77;;;17.40;99.90;;;;;;5051963;28;20025;-62
2022/05/05 07:27:13;;;;;;;30.35;13.95;;;17.60;99.90;;;;;;5052115;28;20017;-62
2022/05/05 07:29:40;;;;;;;28.15;13.73;;;17.90;99.80;;;;;;5051722;28;20461;-62
2022/05/05 07:32:06;;;;;;;27.88;14.07;;;18.10;99.40;;;;;;5052169;28;20022;-62
2022/05/05 07:34:34;;;;;;;32.40;16.23;;;18.10;99.70;;;;;;5050984;28;20059;-62
2022/05/05 07:37:00;;;;;;;31.10;15.35;;;18.30;99.40;;;;;;5051783;28;20052;-62
2022/05/05 07:39:26;;;;;;;31.33;15.88;;;18.40;99.40;;;;;;5052280;28;20029;-62
2022/05/05 07:41:52;;;;;;;32.15;16.65;;;18.30;99.60;;;;;;5052135;28;20071;-62
2022/05/05 07:44:17;;;;;;;33.72;17.23;;;18.30;99.70;;;;;;5052372;28;20025;-62
2022/05/05 07:46:43;;;;;;;29.35;15.57;;;18.30;99.90;;;;;;5051948;28;20095;-64
2022/05/05 07:49:09;;;;;;;30.73;16.88;;;18.50;99.90;;;;;;5049165;28;20357;-62
2022/05/05 07:51:35;;;;;;;29.30;16.88;;;18.70;99.50;;;;;;5050484;28;20021;-62
2022/05/05 07:56:46;;;;;;;37.00;19.90;;;19.20;99.00;;;;;;5054931;28;20083;-62
2022/05/05 07:59:11;;;;;;;30.50;16.98;;;19.30;99.30;;;;;;5054895;28;20708;-61
2022/05/05 08:01:37;;;;;;;32.75;18.13;;;19.60;99.20;;;;;;5054576;28;20025;-62
2022/05/05 08:04:04;;;;;;;36.47;20.08;;;19.80;98.60;;;;;;5053918;28;20616;-62
2022/05/05 08:06:31;;;;;;;36.25;18.25;;;20.10;98.70;;;;;;5054871;28;20453;-61
2022/05/05 08:08:56;;;;;;;32.90;17.75;;;20.50;98.30;;;;;;5054454;28;20467;-61
2022/05/05 08:11:22;;;;;;;37.50;22.02;;;20.70;97.50;;;;;;5054604;28;20017;-61
2022/05/05 08:13:48;;;;;;;36.85;20.63;;;20.90;97.60;;;;;;5054516;28;20032;-61
2022/05/05 08:16:13;;;;;;;37.65;21.25;;;21.10;97.60;;;;;;5055613;28;20032;-61
2022/05/05 08:18:39;;;;;;;37.50;21.25;;;21.40;97.10;;;;;;5049089;28;20025;-62
2022/05/05 08:21:05;;;;;;;37.97;21.02;;;21.60;97.10;;;;;;5054959;28;20024;-61
2022/05/05 08:23:32;;;;;;;36.20;21.45;;;21.80;96.70;;;;;;5055385;28;20017;-62
2022/05/05 08:28:42;;;;;;;37.92;22.20;;;22.10;96.20;;;;;;5054842;28;20082;-61
2022/05/05 08:31:10;;;;;;;36.28;20.70;;;22.30;95.80;;;;;;5054806;28;20111;-62
2022/05/05 08:33:36;;;;;;;33.80;20.02;;;22.40;95.60;;;;;;5055218;28;20035;-61
2022/05/05 08:36:01;;;;;;;38.38;22.17;;;22.60;95.40;;;;;;5055377;28;20025;-61
2022/05/05 08:38:27;;;;;;;42.13;22.42;;;22.80;95.20;;;;;;5055024;28;20112;-61
2022/05/05 08:40:53;;;;;;;35.65;21.65;;;23.20;94.60;;;;;;5055092;28;20025;-62
2022/05/05 08:43:18;;;;;;;33.92;20.38;;;23.80;94.30;;;;;;5054894;28;20408;-62
2022/05/05 08:45:47;;;;;;;36.80;21.05;;;24.30;93.20;;;;;;5054829;28;20089;-61
2022/05/05 08:48:13;;;;;;;34.50;20.67;;;24.60;93.20;;;;;;5053519;28;20029;-62
2022/05/05 08:50:44;;;;;;;35.38;21.30;;;25.00;92.00;;;;;;5054819;28;20032;-62
2022/05/05 08:53:15;;;;;;;34.75;21.63;;;25.20;91.90;;;;;;5055261;28;20033;-62
2022/05/05 08:55:43;;;;;;;35.58;21.55;;;25.60;91.80;;;;;;5049589;28;20365;-62
2022/05/05 08:58:09;;;;;;;35.53;22.10;;;25.90;90.70;;;;;;5054867;28;20082;-62
2022/05/05 09:00:36;;;;;;;34.40;22.60;;;26.30;90.20;;;;;;5054859;28;20048;-62
2022/05/05 09:03:04;;;;;;;35.60;22.20;;;26.70;89.70;;;;;;5054848;28;20028;-62
2022/05/05 09:05:42;;;;;;;36.47;23.73;;;26.90;88.60;;;;;;5054621;28;20017;-62
2022/05/05 09:08:32;;;;;;;35.65;22.00;;;26.90;87.60;;;;;;5054691;28;20056;-62
2022/05/05 09:11:01;;;;;;;35.65;21.83;;;26.70;87.30;;;;;;5048963;28;20032;-62
2022/05/05 09:13:37;;;;;;;32.67;21.05;;;26.50;87.30;;;;;;5054442;28;20029;-62
2022/05/05 09:16:05;;;;;;;34.30;21.05;;;26.00;87.40;;;;;;5054554;28;20040;-62
2022/05/05 09:18:34;;;;;;;32.40;20.27;;;25.50;87.80;;;;;;5053994;28;20021;-62
2022/05/05 09:21:05;;;;;;;30.60;18.85;;;25.30;88.50;;;;;;5054189;28;20025;-62
2022/05/05 09:26:30;;;;;;;37.95;23.38;;;25.40;87.80;;;;;;5054343;28;20434;-62
2022/05/05 09:28:56;;;;;;;38.03;22.92;;;25.60;87.70;;;;;;5053104;28;20064;-62
2022/05/05 09:31:22;;;;;;;38.40;24.13;;;26.00;87.20;;;;;;5054248;28;20464;-62
2022/05/05 09:33:49;;;;;;;39.00;24.08;;;25.90;86.00;;;;;;5036930;28;20021;-61
2022/05/05 09:36:16;;;;;;;36.10;22.20;;;25.70;86.70;;;;;;5051215;28;20050;-62
2022/05/05 09:38:48;;;;;;;37.05;21.98;;;25.80;86.60;;;;;;5052294;28;20487;-62
2022/05/05 09:41:13;;;;;;;36.55;21.30;;;25.90;85.80;;;;;;5053979;28;20076;-62
2022/05/05 09:43:39;;;;;;;32.08;18.73;;;25.90;85.30;;;;;;5054094;28;20453;-63
2022/05/05 09:46:30;;;;;;;31.38;19.30;;;26.00;84.80;;;;;;5053861;28;20017;-62
2022/05/05 09:49:09;;;;;;;36.47;22.30;;;26.20;83.90;;;;;;5054022;28;20036;-62
2022/05/05 09:51:38;;;;;;;36.97;23.23;;;26.70;83.90;;;;;;5054039;28;20017;-61
2022/05/05 09:59:40;;;;;;;36.28;23.92;;;27.40;81.60;;;;;;5053868;28;20112;-63
2022/05/05 10:04:00;;;;;;;35.92;24.13;;;27.20;81.90;;;;;;5053238;28;20027;-61
2022/05/05 10:05:10;;;;;;;38.83;24.27;;;27.40;81.10;;;;;;5051299;28;20051;-61
2022/05/05 10:07:38;;;;;;;37.83;23.67;;;27.50;81.00;;;;;;5033835;28;20068;-62
2022/05/05 10:10:06;;;;;;;35.20;21.65;;;27.60;80.80;;;;;;5033393;28;20021;-61
2022/05/05 10:12:34;;;;;;;33.15;20.30;;;27.70;80.00;;;;;;5033419;28;20030;-61
2022/05/05 10:15:00;;;;;;;33.00;20.63;;;27.70;79.10;;;;;;5033624;28;20029;-61
2022/05/05 10:17:27;;;;;;;31.67;18.58;;;27.70;78.90;;;;;;5032061;28;20022;-61
2022/05/05 10:19:52;;;;;;;33.55;21.10;;;27.70;78.20;;;;;;5033531;28;20039;-63
2022/05/05 10:22:54;;;;;;;33.38;20.45;;;27.70;77.80;;;;;;5033021;28;20128;-66
2022/05/05 10:25:26;;;;;;;33.67;21.88;;;27.70;77.90;;;;;;5030734;28;20068;-65
2022/05/05 10:27:52;;;;;;;33.58;21.90;;;27.70;77.50;;;;;;5034055;28;20053;-63
2022/05/05 10:30:34;;;;;;;38.72;26.63;;;27.70;77.80;;;;;;5061103;28;20044;-62
2022/05/05 10:33:00;;;;;;;42.30;27.25;;;27.70;79.00;;;;;;5062193;28;20036;-66
2022/05/05 10:35:26;;;;;;;40.58;26.38;;;27.70;79.10;;;;;;5068279;28;20499;-66
2022/05/05 10:37:52;;;;;;;39.17;27.05;;;27.50;79.10;;;;;;5061268;28;20099;-64
2022/05/05 10:40:17;;;;;;;39.30;26.25;;;27.20;79.30;;;;;;5052649;28;20108;-65
2022/05/05 10:42:47;;;;;;;39.30;25.15;;;26.90;79.80;;;;;;5052965;28;20028;-64
2022/05/05 10:45:32;;;;;;;43.30;26.30;;;26.60;80.20;;;;;;5057729;28;20027;-66
2022/05/05 10:48:06;;;;;;;38.20;26.08;;;26.20;80.90;;;;;;5072927;28;20100;-65
2022/05/05 10:50:33;;;;;;;39.95;25.38;;;25.90;81.50;;;;;;5072539;28;20017;-64
2022/05/05 10:53:00;;;;;;;38.50;25.50;;;25.60;81.80;;;;;;5072757;28;20115;-65
2022/05/05 10:55:32;;;;;;;39.05;25.00;;;25.50;82.00;;;;;;5072833;28;20073;-65
2022/05/05 10:57:58;;;;;;;36.28;23.42;;;25.60;82.00;;;;;;5072641;28;20032;-65
2022/05/05 11:00:24;;;;;;;37.80;24.50;;;26.00;81.50;;;;;;5061385;28;20029;-66
2022/05/05 11:03:00;;;;;;;38.13;24.02;;;26.40;80.80;;;;;;5061692;28;20028;-63
2022/05/05 11:05:27;;;;;;;33.10;21.30;;;26.60;80.10;;;;;;5072665;28;20109;-64
2022/05/05 11:07:54;;;;;;;34.35;22.38;;;26.90;79.00;;;;;;5066853;28;20461;-61
2022/05/05 11:10:43;;;;;;;34.60;20.60;;;27.30;78.60;;;;;;5031998;28;20033;-62
2022/05/05 11:13:47;;;;;;;31.95;21.25;;;27.70;77.20;;;;;;5031914;28;20040;-62
2022/05/05 11:22:11;;;;;;;23.35;14.95;;;27.10;76.20;;;;;;5030958;28;20040;-62
2022/05/05 11:24:39;;;;;;;27.88;16.60;;;26.70;76.10;;;;;;5030983;28;20037;-64
2022/05/05 11:27:09;;;;;;;26.23;16.23;;;26.40;76.50;;;;;;5032163;28;20346;-63
2022/05/05 11:29:35;;;;;;;29.05;16.27;;;26.10;76.70;;;;;;5035263;28;20608;-65
2022/05/05 11:32:02;;;;;;;25.30;15.05;;;26.20;78.00;;;;;;5036202;28;20121;-62
2022/05/05 11:34:33;;;;;;;22.85;12.73;;;26.30;76.70;;;;;;5035633;28;20115;-65
2022/05/05 11:37:01;;;;;;;25.73;15.20;;;26.60;75.50;;;;;;5036224;28;20190;-61
2022/05/05 11:39:28;;;;;;;23.92;14.88;;;26.90;75.00;;;;;;5036327;28;20104;-63
2022/05/05 11:41:58;;;;;;;21.15;11.23;;;27.20;74.80;;;;;;5036582;28;20026;-62
2022/05/05 11:44:25;;;;;;;21.48;11.35;;;27.50;73.50;;;;;;5036363;28;20018;-62
2022/05/05 11:46:53;;;;;;;19.67;10.95;;;27.70;72.40;;;;;;5036140;28;20104;-64
2022/05/05 11:49:19;;;;;;;20.23;10.52;;;27.80;72.00;;;;;;5036328;28;20017;-65
2022/05/05 11:51:45;;;;;;;18.05;10.00;;;27.80;71.90;;;;;;5035302;28;20731;-62
2022/05/05 11:54:16;;;;;;;18.50;10.63;;;28.20;71.20;;;;;;5035974;28;20025;-65
2022/05/05 11:56:47;;;;;;;20.27;11.35;;;29.70;70.10;;;;;;5055520;28;20027;-64
2022/05/05 12:02:04;;;;;;;23.52;14.75;;;32.00;66.40;;;;;;5055648;28;20024;-65
2022/05/05 12:04:31;;;;;;;22.40;14.75;;;33.10;64.30;;;;;;5055359;28;20024;-62
2022/05/05 12:06:58;;;;;;;22.65;14.38;;;33.10;63.60;;;;;;5055855;28;20411;-63
2022/05/05 12:09:23;;;;;;;25.85;15.48;;;32.80;62.90;;;;;;5055297;28;20021;-65
2022/05/05 12:11:49;;;;;;;23.23;14.55;;;32.50;63.00;;;;;;5054763;28;20369;-66
2022/05/05 12:14:17;;;;;;;20.13;12.65;;;32.40;62.90;;;;;;5055158;28;20100;-66
2022/05/05 12:16:44;;;;;;;19.50;12.13;;;32.10;61.40;;;;;;5054910;28;20407;-65
2022/05/05 12:19:11;;;;;;;20.23;12.10;;;32.30;60.90;;;;;;5055756;28;20017;-65
2022/05/05 12:21:38;;;;;;;18.85;11.05;;;32.60;61.00;;;;;;5055063;28;20021;-66
2022/05/05 12:24:05;;;;;;;23.05;14.80;;;33.20;59.40;;;;;;5055558;28;20108;-64
2022/05/05 12:26:32;;;;;;;20.70;11.77;;;33.70;59.10;;;;;;5055419;28;20085;-64
2022/05/05 12:28:59;;;;;;;19.05;11.75;;;34.00;58.20;;;;;;5055179;28;20051;-62
2022/05/05 12:31:25;;;;;;;20.30;11.77;;;34.20;57.30;;;;;;5054826;28;20055;-62
2022/05/05 12:33:51;;;;;;;21.65;13.10;;;34.30;56.40;;;;;;5055252;28;20183;-64
2022/05/05 12:36:18;;;;;;;23.23;13.85;;;34.30;56.50;;;;;;5054791;28;20053;-63
2022/05/05 12:38:44;;;;;;;24.65;15.82;;;34.20;56.60;;;;;;5054499;28;20361;-66
2022/05/05 12:41:10;;;;;;;25.05;15.75;;;34.10;56.70;;;;;;5054036;28;20447;-61
2022/05/05 12:43:36;;;;;;;23.08;15.32;;;33.70;57.10;;;;;;5054660;28;20035;-65
2022/05/05 12:46:03;;;;;;;24.70;14.95;;;33.10;56.90;;;;;;5054399;28;20112;-65
2022/05/05 12:48:29;;;;;;;22.42;13.27;;;32.60;57.10;;;;;;5053278;28;20029;-63
2022/05/05 12:50:55;;;;;;;23.23;14.32;;;31.90;57.70;;;;;;5055022;28;20021;-66
2022/05/05 13:01:46;;;;;;;24.90;15.25;;;29.90;58.90;;;;;;5054503;28;20036;-63
2022/05/05 13:04:15;;;;;;;25.85;14.60;;;29.40;60.10;;;;;;5054396;28;20067;-65
2022/05/05 13:06:42;;;;;;;24.15;13.45;;;28.90;60.90;;;;;;5054641;28;20078;-63
2022/05/05 13:09:10;;;;;;;21.77;13.18;;;28.50;61.90;;;;;;5054132;28;20017;-65
2022/05/05 13:11:40;;;;;;;21.45;13.18;;;28.10;62.90;;;;;;5054237;28;20100;-64
2022/05/05 13:14:06;;;;;;;21.05;11.88;;;27.80;62.40;;;;;;5054857;28;20028;-65
2022/05/05 13:16:33;;;;;;;21.42;11.75;;;27.50;62.60;;;;;;5054165;28;20357;-66
2022/05/05 13:19:01;;;;;;;19.00;10.85;;;27.20;63.50;;;;;;5053323;28;20017;-65
2022/05/05 13:21:30;;;;;;;21.38;13.32;;;26.90;63.60;;;;;;5054793;28;20028;-62
2022/05/05 13:23:56;;;;;;;20.85;12.43;;;26.70;63.90;;;;;;5050122;28;20021;-65